createdAt,value
2022-11-08T00:00:05.593Z,3.52
2022-11-08T00:02:32.276Z,3.67
2022-11-08T00:04:59.083Z,3.64
2022-11-08T00:07:44.396Z,3.67
2022-11-08T00:10:29.557Z,3.58
2022-11-08T00:13:14.872Z,3.57
2022-11-08T00:15:41.448Z,3.64
2022-11-08T00:18:08.423Z,3.92
2022-11-08T00:20:35.100Z,3.49
2022-11-08T00:23:01.931Z,3.53
2022-11-08T00:25:28.552Z,3.65
2022-11-08T00:27:55.130Z,3.60
2022-11-08T00:30:21.773Z,3.62
2022-11-08T00:32:48.616Z,3.72
2022-11-08T00:35:15.392Z,3.54
2022-11-08T00:37:42.126Z,3.61
2022-11-08T00:40:09.455Z,3.75
2022-11-08T00:42:36.049Z,3.60
2022-11-08T00:45:02.821Z,3.33
2022-11-08T00:47:29.934Z,3.75
2022-11-08T00:49:56.519Z,3.35
2022-11-08T00:52:23.208Z,3.34
2022-11-08T00:54:49.792Z,3.36
2022-11-08T00:57:16.389Z,3.56
2022-11-08T00:59:42.994Z,3.74
2022-11-08T01:02:09.709Z,3.58
2022-11-08T01:04:36.403Z,3.62
2022-11-08T01:07:03.093Z,3.63
2022-11-08T01:09:29.733Z,3.81
2022-11-08T01:11:56.332Z,4.10
2022-11-08T01:14:22.929Z,3.91
2022-11-08T01:16:49.599Z,3.66
2022-11-08T01:19:16.220Z,3.57
2022-11-08T01:21:42.878Z,3.02
2022-11-08T01:24:09.539Z,3.06
2022-11-08T01:26:36.163Z,3.73
2022-11-08T01:29:02.855Z,3.51
2022-11-08T01:31:31.763Z,3.63
2022-11-08T01:33:59.405Z,3.43
2022-11-08T01:36:28.315Z,3.37
2022-11-08T01:38:56.521Z,3.37
2022-11-08T01:41:25.646Z,3.31
2022-11-08T01:43:59.432Z,2.98
2022-11-08T01:46:36.827Z,2.93
2022-11-08T01:49:25.235Z,2.97
2022-11-08T01:51:54.800Z,3.01
2022-11-08T01:54:31.365Z,3.03
2022-11-08T01:57:00.682Z,2.83
2022-11-08T01:59:27.812Z,2.91
2022-11-08T02:01:55.157Z,3.12
2022-11-08T02:04:22.081Z,3.24
2022-11-08T02:06:49.838Z,3.35
2022-11-08T02:09:18.696Z,3.43
2022-11-08T02:11:48.111Z,3.12
2022-11-08T02:14:16.533Z,2.77
2022-11-08T02:16:43.111Z,3.07
2022-11-08T02:19:13.914Z,3.23
2022-11-08T02:21:49.605Z,2.80
2022-11-08T02:24:17.364Z,3.08
2022-11-08T02:26:45.445Z,3.11
2022-11-08T02:29:26.884Z,3.06
2022-11-08T02:31:53.818Z,3.28
2022-11-08T02:34:24.923Z,2.89
2022-11-08T02:36:51.545Z,2.74
2022-11-08T02:39:18.310Z,2.79
2022-11-08T02:41:44.949Z,2.80
2022-11-08T02:44:11.559Z,2.72
2022-11-08T02:46:38.265Z,2.48
2022-11-08T02:49:04.883Z,2.51
2022-11-08T02:51:31.475Z,2.19
2022-11-08T02:53:58.226Z,2.36
2022-11-08T02:56:24.969Z,2.25
2022-11-08T02:58:51.538Z,2.50
2022-11-08T03:01:18.680Z,1.97
2022-11-08T03:03:45.255Z,2.34
2022-11-08T03:06:11.873Z,2.15
2022-11-08T03:08:38.439Z,2.35
2022-11-08T03:11:05.164Z,2.06
2022-11-08T03:13:31.774Z,2.11
2022-11-08T03:16:02.295Z,2.22
2022-11-08T03:18:28.862Z,2.10
2022-11-08T03:20:55.674Z,1.78
2022-11-08T03:23:22.365Z,2.23
2022-11-08T03:25:48.916Z,2.01
2022-11-08T03:28:19.051Z,2.07
2022-11-08T03:30:51.276Z,1.85
2022-11-08T03:33:18.037Z,1.54
2022-11-08T03:35:44.619Z,1.83
2022-11-08T03:38:11.211Z,1.82
2022-11-08T03:40:37.804Z,1.51
2022-11-08T03:43:04.403Z,2.04
2022-11-08T03:45:31.038Z,1.66
2022-11-08T03:47:57.616Z,1.68
2022-11-08T03:50:24.230Z,1.80
2022-11-08T03:52:53.304Z,2.07
2022-11-08T03:55:22.319Z,1.85
2022-11-08T03:57:50.008Z,2.20
2022-11-08T04:00:28.771Z,2.15
2022-11-08T04:03:01.128Z,2.10
2022-11-08T04:05:27.833Z,1.74
2022-11-08T04:07:54.518Z,1.85
2022-11-08T04:10:21.096Z,1.68
2022-11-08T04:13:06.460Z,1.82
2022-11-08T04:15:33.194Z,1.83
2022-11-08T04:18:18.610Z,1.73
2022-11-08T04:21:06.105Z,1.73
2022-11-08T04:23:34.818Z,1.63
2022-11-08T04:26:05.613Z,1.39
2022-11-08T04:28:36.460Z,1.45
2022-11-08T04:31:06.630Z,1.56
2022-11-08T04:33:33.337Z,1.56
2022-11-08T04:36:04.986Z,1.54
2022-11-08T04:38:32.468Z,1.17
2022-11-08T04:41:07.429Z,1.52
2022-11-08T04:43:34.750Z,1.39
2022-11-08T04:46:07.003Z,1.06
2022-11-08T04:48:33.912Z,0.92
2022-11-08T04:51:04.914Z,1.21
2022-11-08T04:53:32.131Z,0.89
2022-11-08T04:56:00.910Z,1.04
2022-11-08T04:58:28.987Z,1.17
2022-11-08T05:00:59.093Z,0.99
2022-11-08T05:03:25.900Z,0.92
2022-11-08T05:05:52.523Z,0.86
2022-11-08T05:08:19.609Z,0.92
2022-11-08T05:10:46.565Z,0.51
2022-11-08T05:13:13.172Z,1.10
2022-11-08T05:15:39.736Z,0.98
2022-11-08T05:18:06.364Z,0.89
2022-11-08T05:20:51.580Z,0.99
2022-11-08T05:23:24.282Z,0.87
2022-11-08T05:25:55.583Z,1.16
2022-11-08T05:28:22.430Z,1.12
2022-11-08T05:30:53.913Z,0.83
2022-11-08T05:33:20.573Z,0.62
2022-11-08T05:35:47.370Z,0.24
2022-11-08T05:38:14.180Z,0.91
2022-11-08T05:40:41.163Z,0.91
2022-11-08T05:43:07.993Z,0.92
2022-11-08T05:45:34.682Z,0.80
2022-11-08T05:48:04.258Z,0.77
2022-11-08T05:50:35.316Z,0.53
2022-11-08T05:53:05.160Z,0.32
2022-11-08T05:55:31.747Z,0.47
2022-11-08T05:57:58.403Z,0.92
2022-11-08T06:00:25.114Z,0.70
2022-11-08T06:02:51.754Z,0.92
2022-11-08T06:05:18.513Z,0.82
2022-11-08T06:07:45.120Z,0.74
2022-11-08T06:10:13.306Z,1.06
2022-11-08T06:12:39.983Z,1.26
2022-11-08T06:15:08.239Z,0.95
2022-11-08T06:17:34.955Z,0.61
2022-11-08T06:20:01.953Z,0.17
2022-11-08T06:22:33.947Z,0.97
2022-11-08T06:25:01.203Z,0.90
2022-11-08T06:27:27.933Z,0.51
2022-11-08T06:29:54.611Z,1.16
2022-11-08T06:32:21.382Z,1.01
2022-11-08T06:34:49.033Z,0.88
2022-11-08T06:37:16.590Z,0.76
2022-11-08T06:39:43.931Z,0.42
2022-11-08T06:42:11.281Z,0.68
2022-11-08T06:44:38.039Z,0.70
2022-11-08T06:47:04.867Z,0.94
2022-11-08T06:49:31.482Z,1.14
2022-11-08T06:51:58.073Z,0.69
2022-11-08T06:54:26.885Z,0.41
2022-11-08T06:56:55.829Z,0.64
2022-11-08T06:59:23.229Z,0.47
2022-11-08T07:01:50.049Z,0.86
2022-11-08T07:04:16.826Z,0.88
2022-11-08T07:06:43.437Z,0.77
2022-11-08T07:09:10.180Z,0.98
2022-11-08T07:11:36.986Z,0.99
2022-11-08T07:14:03.757Z,1.25
2022-11-08T07:16:30.478Z,1.58
2022-11-08T07:18:57.113Z,1.26
2022-11-08T07:21:23.968Z,1.62
2022-11-08T07:23:50.639Z,1.38
2022-11-08T07:26:17.295Z,1.39
2022-11-08T07:28:43.934Z,1.42
2022-11-08T07:31:10.725Z,1.70
2022-11-08T07:33:37.527Z,1.52
2022-11-08T07:36:04.440Z,1.83
2022-11-08T07:38:31.100Z,2.26
2022-11-08T07:40:59.487Z,2.36
2022-11-08T07:43:27.696Z,2.22
2022-11-08T07:46:00.083Z,2.52
2022-11-08T07:48:28.612Z,2.05
2022-11-08T07:50:55.576Z,2.57
2022-11-08T07:53:22.771Z,2.71
2022-11-08T07:55:49.595Z,2.44
2022-11-08T07:58:16.961Z,2.84
2022-11-08T08:00:45.028Z,2.87
2022-11-08T08:03:14.202Z,2.93
2022-11-08T08:05:43.438Z,2.05
2022-11-08T08:08:12.451Z,2.72
2022-11-08T08:10:40.041Z,2.79
2022-11-08T08:13:06.816Z,2.82
2022-11-08T08:15:33.817Z,2.35
2022-11-08T08:18:02.453Z,3.20
2022-11-08T08:20:30.428Z,2.96
2022-11-08T08:22:57.889Z,2.28
2022-11-08T08:25:24.975Z,3.48
2022-11-08T08:27:54.939Z,4.30
2022-11-08T08:30:22.794Z,4.57
2022-11-08T08:33:02.143Z,4.40
2022-11-08T08:35:36.553Z,4.94
2022-11-08T08:38:05.045Z,4.91
2022-11-08T08:40:32.862Z,5.01
2022-11-08T08:43:01.005Z,4.63
2022-11-08T08:45:27.716Z,5.08
2022-11-08T08:47:55.869Z,5.17
2022-11-08T08:50:23.300Z,5.24
2022-11-08T08:52:49.911Z,5.09
2022-11-08T08:55:17.557Z,5.38
2022-11-08T08:57:45.595Z,5.00
2022-11-08T09:03:05.187Z,5.55
2022-11-08T09:05:32.887Z,6.03
2022-11-08T09:07:59.713Z,6.01
2022-11-08T09:10:26.917Z,6.12
2022-11-08T09:12:53.997Z,6.37
2022-11-08T09:15:20.696Z,6.30
2022-11-08T09:17:47.284Z,6.21
2022-11-08T09:20:14.430Z,6.57
2022-11-08T09:22:41.012Z,6.84
2022-11-08T09:25:07.817Z,6.82
2022-11-08T09:27:34.458Z,6.64
2022-11-08T09:30:01.089Z,6.80
2022-11-08T09:32:39.643Z,6.69
2022-11-08T09:35:15.203Z,6.42
2022-11-08T09:37:45.567Z,6.29
2022-11-08T09:40:26.712Z,6.58
2022-11-08T09:43:18.582Z,6.95
2022-11-08T09:45:46.885Z,7.01
2022-11-08T09:48:38.787Z,7.28
2022-11-08T09:51:21.142Z,7.04
2022-11-08T09:53:54.327Z,7.41
2022-11-08T09:56:26.243Z,6.91
2022-11-08T09:59:40.629Z,6.97
2022-11-08T10:02:18.049Z,7.31
2022-11-08T10:04:53.313Z,7.32
2022-11-08T10:07:36.672Z,7.52
2022-11-08T10:10:17.826Z,7.70
2022-11-08T10:13:08.113Z,7.89
2022-11-08T10:15:48.665Z,8.05
2022-11-08T10:18:33.273Z,8.50
2022-11-08T10:21:21.987Z,8.55
2022-11-08T10:24:02.257Z,8.91
2022-11-08T10:26:36.554Z,8.95
2022-11-08T10:29:19.254Z,9.09
2022-11-08T10:31:47.881Z,9.00
2022-11-08T10:34:20.029Z,8.51
2022-11-08T10:36:54.503Z,9.09
2022-11-08T10:39:26.102Z,9.38
2022-11-08T10:42:14.448Z,9.54
2022-11-08T10:44:41.765Z,9.59
2022-11-08T10:47:32.805Z,9.73
2022-11-08T10:50:03.930Z,9.71
2022-11-08T10:52:40.834Z,9.76
2022-11-08T10:55:09.929Z,9.88
2022-11-08T10:57:44.037Z,10.20
2022-11-08T11:00:16.741Z,10.30
2022-11-08T11:02:44.616Z,10.21
2022-11-08T11:05:22.083Z,10.33
2022-11-08T11:08:07.491Z,10.49
2022-11-08T11:10:35.570Z,10.34
2022-11-08T11:13:02.162Z,10.64
2022-11-08T11:15:33.602Z,10.75
2022-11-08T11:18:00.550Z,10.68
2022-11-08T11:20:27.901Z,10.87
2022-11-08T11:22:54.784Z,10.61
2022-11-08T11:25:23.506Z,10.78
2022-11-08T11:27:55.470Z,10.95
2022-11-08T11:30:30.978Z,10.77
2022-11-08T11:33:25.933Z,10.97
2022-11-08T11:36:14.430Z,11.21
2022-11-08T11:38:55.218Z,11.08
2022-11-08T11:41:27.992Z,11.14
2022-11-08T11:44:12.865Z,11.23
2022-11-08T11:46:58.350Z,11.29
2022-11-08T11:49:26.091Z,11.13
2022-11-08T11:51:55.495Z,11.16
2022-11-08T11:54:28.632Z,11.38
2022-11-08T11:58:00.186Z,11.47
2022-11-08T12:00:27.083Z,11.49
2022-11-08T12:03:07.458Z,11.55
2022-11-08T12:05:40.579Z,11.31
2022-11-08T12:08:44.290Z,12.12
2022-11-08T12:11:29.536Z,12.13
2022-11-08T12:14:18.066Z,12.07
2022-11-08T12:17:17.133Z,12.16
2022-11-08T12:20:04.983Z,12.39
2022-11-08T12:23:08.918Z,12.58
2022-11-08T12:25:39.776Z,12.79
2022-11-08T12:28:30.068Z,13.21
2022-11-08T12:31:02.637Z,13.87
2022-11-08T12:33:32.344Z,13.71
2022-11-08T12:36:04.884Z,13.34
2022-11-08T12:38:38.478Z,13.26
2022-11-08T12:41:21.847Z,13.26
2022-11-08T12:43:51.414Z,13.88
2022-11-08T12:46:20.741Z,13.45
2022-11-08T12:49:15.719Z,13.74
2022-11-08T12:51:53.927Z,13.24
2022-11-08T12:54:36.385Z,13.40
2022-11-08T12:57:09.328Z,13.96
2022-11-08T12:59:45.688Z,14.19
2022-11-08T13:02:20.987Z,14.32
2022-11-08T13:05:07.574Z,15.01
2022-11-08T13:07:57.358Z,15.33
2022-11-08T13:10:30.070Z,15.63
2022-11-08T13:13:25.129Z,15.70
2022-11-08T13:16:33.655Z,16.24
2022-11-08T13:19:01.489Z,15.58
2022-11-08T13:21:28.112Z,16.36
2022-11-08T13:24:42.839Z,16.08
2022-11-08T13:27:25.208Z,15.87
2022-11-08T13:29:53.260Z,16.09
2022-11-08T13:32:52.716Z,15.69
2022-11-08T13:35:25.145Z,15.69
2022-11-08T13:38:10.471Z,16.27
2022-11-08T13:40:55.857Z,15.79
2022-11-08T13:43:27.188Z,16.01
2022-11-08T13:45:54.412Z,16.05
2022-11-08T13:48:24.254Z,16.31
2022-11-08T13:50:53.674Z,15.63
2022-11-08T13:53:20.240Z,15.02
2022-11-08T13:55:57.537Z,14.25
2022-11-08T13:58:30.475Z,14.35
2022-11-08T14:00:58.136Z,13.84
2022-11-08T14:03:33.825Z,13.60
2022-11-08T14:06:06.603Z,13.28
2022-11-08T14:08:43.523Z,12.93
2022-11-08T14:11:31.540Z,13.08
2022-11-08T14:14:07.495Z,14.21
2022-11-08T14:17:19.976Z,14.72
2022-11-08T14:19:48.062Z,14.41
2022-11-08T14:22:24.109Z,14.25
2022-11-08T14:24:55.952Z,13.48
2022-11-08T14:27:38.467Z,13.06
2022-11-08T14:30:17.107Z,12.68
2022-11-08T14:32:44.249Z,12.69
2022-11-08T14:35:13.631Z,11.95
2022-11-08T14:37:43.910Z,11.97
2022-11-08T14:40:50.169Z,12.27
2022-11-08T14:43:17.047Z,12.23
2022-11-08T14:45:44.709Z,11.90
2022-11-08T14:48:20.299Z,11.74
2022-11-08T14:50:47.206Z,11.80
2022-11-08T14:53:27.091Z,11.79
2022-11-08T14:56:01.374Z,11.71
2022-11-08T14:58:29.327Z,11.71
2022-11-08T15:00:57.727Z,11.48
2022-11-08T15:03:29.661Z,11.50
2022-11-08T15:06:14.182Z,11.35
2022-11-08T15:08:53.187Z,11.14
2022-11-08T15:11:28.475Z,10.98
2022-11-08T15:13:59.917Z,11.00
2022-11-08T15:16:27.078Z,10.83
2022-11-08T15:18:53.792Z,10.39
2022-11-08T15:21:29.567Z,9.95
2022-11-08T15:24:13.848Z,10.34
2022-11-08T15:26:59.697Z,10.29
2022-11-08T15:29:26.624Z,10.25
2022-11-08T15:32:01.146Z,10.13
2022-11-08T15:34:38.616Z,9.76
2022-11-08T15:37:29.239Z,9.79
2022-11-08T15:40:00.359Z,9.77
2022-11-08T15:42:27.062Z,9.45
2022-11-08T15:45:01.517Z,9.65
2022-11-08T15:47:43.636Z,9.69
2022-11-08T15:50:15.529Z,9.94
2022-11-08T15:52:43.180Z,9.43
2022-11-08T15:55:14.740Z,9.09
2022-11-08T15:57:43.164Z,9.47
2022-11-08T16:00:26.745Z,9.46
2022-11-08T16:02:53.614Z,9.21
2022-11-08T16:05:22.821Z,9.36
2022-11-08T16:07:50.569Z,9.15
2022-11-08T16:10:31.427Z,9.17
2022-11-08T16:13:00.855Z,9.01
2022-11-08T16:15:30.716Z,9.00
2022-11-08T16:17:57.351Z,9.15
2022-11-08T16:20:29.983Z,9.01
2022-11-08T16:22:58.557Z,8.77
2022-11-08T16:25:27.130Z,9.00
2022-11-08T16:27:58.224Z,8.84
2022-11-08T16:30:25.788Z,8.78
2022-11-08T16:32:52.677Z,8.73
2022-11-08T16:35:19.366Z,8.71
2022-11-08T16:37:46.549Z,8.77
2022-11-08T16:40:24.744Z,8.69
2022-11-08T16:42:53.252Z,8.69
2022-11-08T16:45:37.328Z,8.55
2022-11-08T16:48:13.361Z,8.22
2022-11-08T16:50:40.417Z,8.30
2022-11-08T16:53:21.308Z,8.43
2022-11-08T16:55:49.018Z,8.27
2022-11-08T16:58:15.948Z,7.72
2022-11-08T17:00:44.872Z,7.81
2022-11-08T17:03:22.913Z,8.32
2022-11-08T17:05:50.104Z,8.19
2022-11-08T17:08:17.312Z,8.19
2022-11-08T17:10:44.255Z,8.31
2022-11-08T17:13:15.566Z,7.81
2022-11-08T17:15:42.664Z,8.08
2022-11-08T17:18:12.692Z,7.99
2022-11-08T17:20:39.682Z,7.90
2022-11-08T17:23:07.696Z,8.09
2022-11-08T17:25:36.551Z,8.03
2022-11-08T17:28:03.988Z,7.84
2022-11-08T17:30:30.658Z,7.84
2022-11-08T17:32:57.562Z,7.66
2022-11-08T17:35:24.758Z,7.75
2022-11-08T17:37:53.351Z,7.51
2022-11-08T17:40:20.085Z,7.72
2022-11-08T17:42:46.716Z,7.79
2022-11-08T17:45:13.362Z,7.81
2022-11-08T17:47:40.019Z,7.65
2022-11-08T17:50:08.606Z,7.48
2022-11-08T17:52:35.629Z,7.59
2022-11-08T17:55:02.316Z,7.52
2022-11-08T17:57:28.932Z,7.84
2022-11-08T17:59:55.616Z,7.60
2022-11-08T18:02:22.522Z,7.45
2022-11-08T18:04:49.226Z,7.48
2022-11-08T18:07:15.955Z,7.72
2022-11-08T18:09:42.610Z,7.49
2022-11-08T18:12:09.247Z,7.37
2022-11-08T18:14:36.250Z,7.23
2022-11-08T18:17:05.032Z,7.18
2022-11-08T18:19:32.226Z,7.33
2022-11-08T18:22:00.354Z,6.85
2022-11-08T18:24:27.110Z,7.15
2022-11-08T18:26:53.771Z,7.05
2022-11-08T18:29:20.553Z,7.14
2022-11-08T18:31:47.147Z,7.14
2022-11-08T18:34:13.823Z,7.28
2022-11-08T18:36:40.460Z,7.36
2022-11-08T18:39:07.113Z,7.11
2022-11-08T18:41:34.123Z,7.31
2022-11-08T18:44:02.813Z,7.29
2022-11-08T18:46:34.314Z,7.05
2022-11-08T18:49:06.982Z,7.23
2022-11-08T18:51:33.885Z,7.18
2022-11-08T18:54:01.120Z,7.15
2022-11-08T18:56:27.862Z,6.87
2022-11-08T18:58:54.552Z,7.13
2022-11-08T19:01:21.243Z,6.86
2022-11-08T19:03:48.089Z,6.87
2022-11-08T19:06:14.795Z,7.18
2022-11-08T19:08:41.578Z,7.02
2022-11-08T19:11:11.542Z,6.73
2022-11-08T19:13:39.962Z,7.17
2022-11-08T19:16:14.417Z,6.95
2022-11-08T19:18:42.349Z,7.21
2022-11-08T19:21:29.406Z,7.26
2022-11-08T19:23:59.440Z,7.26
2022-11-08T19:26:27.955Z,7.25
2022-11-08T19:28:54.987Z,7.24
2022-11-08T19:31:24.367Z,7.23
2022-11-08T19:33:52.973Z,7.21
2022-11-08T19:36:23.085Z,6.96
2022-11-08T19:38:50.118Z,7.07
2022-11-08T19:41:19.210Z,7.09
2022-11-08T19:43:47.149Z,6.93
2022-11-08T19:46:16.519Z,6.75
2022-11-08T19:48:45.142Z,6.74
2022-11-08T19:51:14.921Z,6.88
2022-11-08T19:53:41.720Z,6.67
2022-11-08T19:56:10.555Z,6.72
2022-11-08T19:58:38.510Z,6.74
2022-11-08T20:01:09.845Z,6.89
2022-11-08T20:03:36.751Z,6.72
2022-11-08T20:06:04.528Z,6.91
2022-11-08T20:08:31.580Z,7.00
2022-11-08T20:10:58.743Z,6.80
2022-11-08T20:13:25.883Z,6.92
2022-11-08T20:15:53.105Z,6.94
2022-11-08T20:18:20.332Z,6.59
2022-11-08T20:20:47.297Z,6.65
2022-11-08T20:23:16.748Z,6.69
2022-11-08T20:25:43.500Z,6.52
2022-11-08T20:28:10.160Z,6.50
2022-11-08T20:30:39.109Z,6.68
2022-11-08T20:33:05.737Z,6.38
2022-11-08T20:35:35.186Z,6.40
2022-11-08T20:38:01.895Z,6.06
2022-11-08T20:40:28.671Z,6.15
2022-11-08T20:42:55.300Z,6.18
2022-11-08T20:45:21.946Z,6.27
2022-11-08T20:47:48.639Z,6.23
2022-11-08T20:50:15.646Z,6.17
2022-11-08T20:52:42.280Z,6.40
2022-11-08T20:55:09.166Z,6.31
2022-11-08T20:57:35.749Z,6.34
2022-11-08T21:00:13.135Z,6.16
2022-11-08T21:02:40.424Z,5.90
2022-11-08T21:05:07.378Z,6.38
2022-11-08T21:10:41.442Z,6.02
2022-11-08T21:13:07.484Z,5.96
2022-11-08T21:15:34.081Z,6.30
2022-11-08T21:18:00.790Z,6.05
2022-11-08T21:20:27.433Z,6.27
2022-11-08T21:22:54.092Z,5.80
2022-11-08T21:25:21.746Z,6.09
2022-11-08T21:27:48.359Z,6.05
2022-11-08T21:30:15.026Z,6.13
2022-11-08T21:32:41.644Z,5.87
2022-11-08T21:35:08.713Z,5.96
2022-11-08T21:37:35.444Z,5.75
2022-11-08T21:40:02.103Z,5.93
2022-11-08T21:42:28.709Z,6.05
2022-11-08T21:44:55.424Z,5.98
2022-11-08T21:47:22.339Z,5.66
2022-11-08T21:49:49.070Z,5.74
2022-11-08T21:52:15.763Z,5.60
2022-11-08T21:54:42.377Z,5.52
2022-11-08T21:57:09.114Z,5.38
2022-11-08T21:59:35.733Z,5.34
2022-11-08T22:02:02.666Z,5.47
2022-11-08T22:04:29.446Z,5.77
2022-11-08T22:06:56.148Z,5.49
2022-11-08T22:09:22.823Z,5.17
2022-11-08T22:11:49.506Z,5.26
2022-11-08T22:14:16.233Z,4.92
2022-11-08T22:16:42.883Z,5.31
2022-11-08T22:19:09.937Z,5.03
2022-11-08T22:21:40.151Z,5.07
2022-11-08T22:24:17.143Z,5.13
2022-11-08T22:26:44.504Z,4.87
2022-11-08T22:29:11.366Z,4.95
2022-11-08T22:31:38.544Z,5.07
2022-11-08T22:34:07.954Z,4.72
2022-11-08T22:36:38.705Z,4.99
2022-11-08T22:39:09.791Z,5.14
2022-11-08T22:41:39.362Z,5.04
2022-11-08T22:44:10.540Z,4.86
2022-11-08T22:46:38.604Z,4.86
2022-11-08T22:49:05.311Z,5.13
2022-11-08T22:51:31.885Z,4.98
2022-11-08T22:53:58.493Z,4.84
2022-11-08T22:56:25.116Z,4.66
2022-11-08T22:58:51.768Z,5.02
2022-11-08T23:01:18.489Z,4.68
2022-11-08T23:03:46.255Z,4.81
2022-11-08T23:06:14.096Z,4.64
2022-11-08T23:08:41.125Z,4.43
2022-11-08T23:11:26.815Z,4.62
2022-11-08T23:14:11.971Z,4.78
2022-11-08T23:16:41.782Z,4.87
2022-11-08T23:19:34.411Z,4.87
2022-11-08T23:22:20.976Z,4.64
2022-11-08T23:24:47.672Z,4.73
2022-11-08T23:27:34.781Z,4.92
2022-11-08T23:30:20.533Z,4.95
2022-11-08T23:32:48.839Z,4.65
2022-11-08T23:35:16.572Z,5.03
2022-11-08T23:37:43.832Z,4.68
2022-11-08T23:40:30.904Z,4.85
2022-11-08T23:43:31.567Z,4.74
2022-11-08T23:46:03.571Z,4.84
2022-11-08T23:48:30.195Z,4.80
2022-11-08T23:50:56.782Z,4.50
2022-11-08T23:53:27.448Z,4.78
2022-11-08T23:55:54.641Z,4.61
2022-11-08T23:58:22.040Z,4.76
